Time;durP1;ratioP1;P1;durP2;ratioP2;P2;SDS_P1;SDS_P2;PMS_P1;PMS_P2;Temp;Humidity;BMP_temperature;BMP_pressure;BME280_temperature;BME280_humidity;BME280_pressure;Samples;Min_cycle;Max_cycle;Signal;HPM_P1;HPM_P2
2021/01/16 00:00:56;;;;;;;28.88;12.87;;;;;;;-9.24;67.17;98753.13;383469;103;1961975;-72
2021/01/16 00:02:01;;;;;;;28.58;14.47;;;;;;;-9.26;67.19;98750.64;349633;103;2724783;-72
2021/01/16 00:03:10;;;;;;;25.63;13.00;;;;;;;-9.25;67.16;98757.53;379005;104;1960808;-72
2021/01/16 00:04:16;;;;;;;23.61;11.09;;;;;;;-9.26;67.04;98753.26;380674;103;1960863;-72
2021/01/16 00:05:23;;;;;;;23.32;11.71;;;;;;;-9.25;67.02;98765.38;385448;104;1960794;-72
2021/01/16 00:06:30;;;;;;;22.42;12.46;;;;;;;-9.25;67.21;98759.32;384093;103;1960754;-72
2021/01/16 00:07:36;;;;;;;24.91;11.61;;;;;;;-9.25;67.13;98757.53;385473;104;1960760;-72
2021/01/16 00:08:42;;;;;;;22.56;11.61;;;;;;;-9.24;67.16;98753.13;353145;102;2230885;-72
2021/01/16 00:09:47;;;;;;;21.41;12.31;;;;;;;-9.22;66.93;98759.11;386749;102;1960848;-72
2021/01/16 00:10:56;;;;;;;21.73;10.73;;;;;;;-9.23;67.03;98758.28;384331;104;1961925;-72
2021/01/16 00:12:01;;;;;;;22.39;10.42;;;;;;;-9.21;67.06;98752.92;386960;102;1963927;-72
2021/01/16 00:13:12;;;;;;;18.53;9.73;;;;;;;-9.20;66.57;98765.08;384620;104;1961961;-73
2021/01/16 00:14:17;;;;;;;20.93;10.08;;;;;;;-9.24;66.66;98756.58;342458;104;2181993;-72
2021/01/16 00:15:24;;;;;;;20.34;10.97;;;;;;;-9.26;66.71;98755.88;384105;104;1963994;-72
2021/01/16 00:16:30;;;;;;;21.36;10.41;;;;;;;-9.27;66.44;98756.80;378881;102;2190921;-73
2021/01/16 00:17:36;;;;;;;18.54;9.98;;;;;;;-9.28;66.28;98762.98;380516;104;1961939;-72
2021/01/16 00:18:42;;;;;;;15.24;8.64;;;;;;;-9.30;66.41;98763.06;383744;104;1961986;-72
2021/01/16 00:19:47;;;;;;;15.04;7.39;;;;;;;-9.34;65.63;98772.08;355247;105;2535998;-72
2021/01/16 00:20:58;;;;;;;15.38;7.86;;;;;;;-9.36;66.14;98770.50;385962;104;1961985;-72
2021/01/16 00:22:03;;;;;;;16.21;7.45;;;;;;;-9.36;66.15;98773.95;385960;104;1961012;-72
2021/01/16 00:23:23;;;;;;;15.52;7.71;;;;;;;-9.42;66.19;98770.89;378569;105;1962017;-72
2021/01/16 00:24:30;;;;;;;15.91;7.28;;;;;;;-9.42;66.03;98771.75;351732;108;2877886;-72
2021/01/16 00:25:40;;;;;;;12.86;6.53;;;;;;;-9.45;66.11;98768.48;363867;110;1962059;-72
2021/01/16 00:26:47;;;;;;;19.31;7.74;;;;;;;-9.53;65.30;98766.37;346514;107;2902033;-73
2021/01/16 00:27:53;;;;;;;14.61;7.79;;;;;;;-9.59;64.50;98770.23;368879;106;1960839;-73
2021/01/16 00:28:59;;;;;;;18.52;8.41;;;;;;;-9.61;65.55;98768.66;365678;108;1960895;-73
2021/01/16 00:30:07;;;;;;;15.84;7.89;;;;;;;-9.62;65.75;98767.83;348503;109;2385673;-73
2021/01/16 00:31:13;;;;;;;15.31;7.11;;;;;;;-9.64;65.47;98764.47;359770;110;1963958;-73
2021/01/16 00:32:19;;;;;;;12.52;6.27;;;;;;;-9.67;64.60;98769.08;343226;110;1964058;-73
2021/01/16 00:33:27;;;;;;;15.21;8.34;;;;;;;-9.78;64.45;98769.78;360713;110;1962033;-73
2021/01/16 00:34:32;;;;;;;17.31;7.71;;;;;;;-10.01;64.71;98760.81;348559;110;1962997;-73
2021/01/16 00:35:37;;;;;;;14.13;7.09;;;;;;;-9.99;64.99;98769.39;360445;110;1961983;-72
2021/01/16 00:36:44;;;;;;;13.08;6.62;;;;;;;-9.99;65.50;98766.78;338935;113;2318010;-72
2021/01/16 00:37:51;;;;;;;15.39;7.12;;;;;;;-10.01;65.15;98766.03;353926;109;1961983;-72
2021/01/16 00:38:56;;;;;;;15.62;6.54;;;;;;;-10.03;65.58;98763.54;364853;109;1960795;-73
2021/01/16 00:40:05;;;;;;;15.68;7.93;;;;;;;-10.04;65.11;98766.23;349064;107;2384549;-72
2021/01/16 00:41:11;;;;;;;15.09;8.04;;;;;;;-10.03;65.66;98765.28;332577;110;2579027;-72
2021/01/16 00:42:16;;;;;;;16.97;8.18;;;;;;;-9.99;65.78;98769.39;366194;105;1962045;-73
2021/01/16 00:43:31;;;;;;;12.88;6.42;;;;;;;-9.99;65.73;98762.39;370328;107;1962071;-73
2021/01/16 00:44:37;;;;;;;15.43;6.67;;;;;;;-9.97;65.68;98765.75;371772;106;1962008;-72
2021/01/16 00:45:45;;;;;;;15.04;7.48;;;;;;;-9.99;65.26;98769.39;344662;107;2209011;-72
2021/01/16 00:46:51;;;;;;;14.51;6.79;;;;;;;-10.05;64.48;98773.23;324389;107;2855956;-72
2021/01/16 00:48:06;;;;;;;11.79;6.62;;;;;;;-10.08;64.76;98768.22;365051;108;1960776;-72
2021/01/16 00:49:11;;;;;;;14.98;6.77;;;;;;;-10.07;65.22;98774.27;365740;108;1965364;-72
2021/01/16 00:50:21;;;;;;;14.87;7.31;;;;;;;-10.09;65.25;98774.36;344643;108;2171981;-72
2021/01/16 00:51:26;;;;;;;13.57;6.12;;;;;;;-10.12;64.90;98773.73;350992;112;1961936;-73
2021/01/16 00:52:33;;;;;;;13.37;6.33;;;;;;;-10.17;64.89;98774.84;320483;110;2138744;-73
2021/01/16 00:53:38;;;;;;;14.27;7.07;;;;;;;-10.21;65.22;98773.37;362597;109;1961986;-72
2021/01/16 00:54:46;;;;;;;15.82;7.36;;;;;;;-10.19;65.41;98775.88;356549;109;1961795;-71
2021/01/16 00:55:54;;;;;;;14.30;5.80;;;;;;;-10.21;65.07;98775.98;366496;108;1960743;-73
2021/01/16 00:57:10;;;;;;;17.64;7.69;;;;;;;-10.20;65.39;98769.82;356722;108;1961974;-73
2021/01/16 00:58:21;;;;;;;13.81;6.04;;;;;;;-10.19;65.65;98768.91;353805;112;1964946;-72
2021/01/16 00:59:28;;;;;;;16.73;7.63;;;;;;;-10.14;65.68;98776.42;362711;108;1961976;-72
2021/01/16 01:00:39;;;;;;;15.15;6.95;;;;;;;-10.18;65.21;98772.34;368666;107;1962058;-72
2021/01/16 01:01:56;;;;;;;15.16;6.32;;;;;;;-10.17;65.44;98768.79;353594;111;1961880;-72
2021/01/16 01:03:02;;;;;;;13.95;6.29;;;;;;;-10.15;65.45;98772.15;359658;109;1961927;-74
2021/01/16 01:04:09;;;;;;;14.36;6.92;;;;;;;-10.15;64.94;98773.92;349394;107;2237022;-73
2021/01/16 01:05:18;;;;;;;11.71;5.66;;;;;;;-10.23;64.67;98771.80;368141;108;1961916;-74
2021/01/16 01:06:24;;;;;;;13.45;6.84;;;;;;;-10.30;64.74;98767.92;366646;107;1960967;-74
2021/01/16 01:07:29;;;;;;;12.99;6.16;;;;;;;-10.31;64.96;98764.48;343468;108;2535965;-74
2021/01/16 01:08:35;;;;;;;14.36;6.17;;;;;;;-10.35;64.96;98775.20;352135;108;1962092;-74
2021/01/16 01:09:41;;;;;;;11.31;5.76;;;;;;;-10.41;64.92;98779.05;368179;108;1961959;-74
2021/01/16 01:10:48;;;;;;;15.19;7.15;;;;;;;-10.44;65.08;98779.23;332980;108;2068972;-74
2021/01/16 01:11:53;;;;;;;13.22;6.32;;;;;;;-10.48;65.31;98773.38;364644;109;1961950;-74
2021/01/16 01:13:01;;;;;;;12.37;6.18;;;;;;;-10.49;65.36;98779.52;361848;110;1962984;-73
2021/01/16 01:14:06;;;;;;;14.88;7.56;;;;;;;-10.50;65.71;98777.02;367725;108;1961875;-73
2021/01/16 01:15:11;;;;;;;17.73;7.19;;;;;;;-10.60;65.49;98757.64;367486;108;1961963;-73
2021/01/16 01:16:18;;;;;;;13.91;6.51;;;;;;;-10.50;65.55;98777.85;357068;108;2258973;-74
2021/01/16 01:17:23;;;;;;;13.42;5.72;;;;;;;-10.51;65.65;98781.37;368630;108;1963032;-73
2021/01/16 01:18:30;;;;;;;12.07;6.00;;;;;;;-10.51;65.30;98777.94;367074;108;1961903;-74
2021/01/16 01:19:35;;;;;;;11.45;5.74;;;;;;;-10.52;65.67;98781.48;360758;108;2182955;-73
2021/01/16 01:20:43;;;;;;;12.48;6.10;;;;;;;-10.55;65.16;98774.69;369798;108;1961924;-73
2021/01/16 01:21:48;;;;;;;12.13;6.14;;;;;;;-10.55;65.50;98771.25;346174;108;2483021;-73
2021/01/16 01:22:54;;;;;;;13.87;6.08;;;;;;;-10.58;65.44;98776.63;363351;107;1964818;-71
2021/01/16 01:24:00;;;;;;;12.22;6.14;;;;;;;-10.59;65.43;98775.80;378633;103;1962069;-70
2021/01/16 01:25:18;;;;;;;16.54;6.71;;;;;;;-10.60;65.40;98770.69;382913;103;1961906;-71
2021/01/16 01:26:25;;;;;;;13.21;6.48;;;;;;;-10.57;65.53;98770.50;334034;107;2090906;-70
2021/01/16 01:27:31;;;;;;;13.93;6.31;;;;;;;-10.57;65.65;98775.72;372319;107;1964001;-71
2021/01/16 01:28:37;;;;;;;13.44;6.81;;;;;;;-10.55;65.33;98774.69;376128;105;1961969;-71
2021/01/16 01:29:42;;;;;;;12.46;6.06;;;;;;;-10.56;65.22;98775.60;353043;105;2174913;-70
2021/01/16 01:30:50;;;;;;;15.25;7.54;;;;;;;-10.68;65.26;98750.29;378222;105;1961923;-70
2021/01/16 01:31:55;;;;;;;12.83;6.79;;;;;;;-10.66;65.15;98764.09;356870;107;2323938;-70
2021/01/16 01:33:01;;;;;;;11.94;6.23;;;;;;;-10.69;65.21;98769.47;362353;109;1961944;-71
2021/01/16 01:34:07;;;;;;;15.64;7.50;;;;;;;-10.72;65.49;98765.27;375612;105;1961936;-70
2021/01/16 01:35:24;;;;;;;13.33;6.38;;;;;;;-10.71;65.58;98759.14;350102;105;2529972;-70
2021/01/16 01:36:32;;;;;;;12.84;6.19;;;;;;;-10.71;65.49;98760.92;335078;106;2232917;-71
2021/01/16 01:37:50;;;;;;;15.25;6.87;;;;;;;-10.73;65.36;98765.39;372441;106;1963937;-71
2021/01/16 01:38:56;;;;;;;18.66;7.63;;;;;;;-10.77;65.42;98767.32;382796;103;1961963;-73
2021/01/16 01:40:03;;;;;;;14.88;6.68;;;;;;;-10.76;65.51;98776.84;382576;103;1962010;-72
2021/01/16 01:41:09;;;;;;;14.99;7.05;;;;;;;-10.80;65.01;98777.95;345000;103;2071521;-72
2021/01/16 01:42:18;;;;;;;16.06;6.92;;;;;;;-10.81;65.16;98775.45;375930;105;1964015;-72
2021/01/16 01:43:23;;;;;;;14.26;7.36;;;;;;;-10.91;65.34;98776.00;374624;105;1963007;-72
2021/01/16 01:44:28;;;;;;;13.45;7.47;;;;;;;-10.92;65.43;98768.28;375676;105;1962002;-73
2021/01/16 01:45:34;;;;;;;15.74;6.99;;;;;;;-10.94;65.47;98768.36;341147;105;2075915;-72
2021/01/16 01:47:28;;;;;;;14.91;6.12;;;;;;;-10.83;65.58;98772.92;356520;104;2587888;-71
2021/01/16 01:48:45;;;;;;;14.66;6.31;;;;;;;-10.97;65.24;98770.33;366795;109;1961997;-71
2021/01/16 01:49:53;;;;;;;11.41;5.80;;;;;;;-11.04;65.33;98769.02;333503;111;2203865;-70
2021/01/16 01:51:00;;;;;;;14.72;6.85;;;;;;;-11.05;65.36;98772.56;344384;110;2210956;-71
2021/01/16 01:52:10;;;;;;;14.39;7.49;;;;;;;-11.05;65.53;98772.56;362068;109;1964028;-71
2021/01/16 01:53:18;;;;;;;13.00;6.42;;;;;;;-11.04;65.52;98780.28;362976;110;1962899;-72
2021/01/16 01:54:24;;;;;;;15.31;6.19;;;;;;;-11.00;65.41;98776.57;357250;112;1963980;-71
2021/01/16 01:55:33;;;;;;;15.48;7.53;;;;;;;-10.98;65.19;98772.11;349484;111;2871983;-71
2021/01/16 01:56:43;;;;;;;15.22;5.83;;;;;;;-11.12;65.08;98777.30;356711;111;1962966;-71
2021/01/16 01:57:51;;;;;;;16.58;7.63;;;;;;;-11.11;65.36;98776.38;340914;112;2873966;-71
2021/01/16 01:58:59;;;;;;;13.49;6.73;;;;;;;-11.12;65.35;98772.08;357437;111;1961986;-70
2021/01/16 02:00:08;;;;;;;16.46;7.60;;;;;;;-11.14;65.50;98773.94;356601;111;1961985;-71
2021/01/16 02:01:20;;;;;;;14.00;6.57;;;;;;;-11.17;65.54;98774.95;358170;111;1961884;-71
2021/01/16 02:02:27;;;;;;;12.67;6.04;;;;;;;-11.15;65.77;98782.70;349837;111;1962035;-71
2021/01/16 02:03:34;;;;;;;14.54;6.99;;;;;;;-11.15;65.75;98780.09;356598;111;1962020;-70
2021/01/16 02:04:46;;;;;;;16.45;7.73;;;;;;;-11.16;65.74;98783.64;356228;112;1964959;-69
2021/01/16 02:05:56;;;;;;;15.71;7.29;;;;;;;-11.20;66.01;98779.52;348852;111;2831933;-69
2021/01/16 02:07:21;;;;;;;15.54;7.56;;;;;;;-11.22;65.95;98781.37;346084;113;2260003;-69
2021/01/16 02:08:27;;;;;;;16.51;7.20;;;;;;;-11.23;66.20;98779.70;353373;113;1962031;-71
2021/01/16 02:09:33;;;;;;;15.48;6.82;;;;;;;-11.26;66.23;98782.50;339716;117;1964952;-69
2021/01/16 02:10:38;;;;;;;14.57;7.57;;;;;;;-11.25;66.29;98785.00;303954;119;2143287;-70
2021/01/16 02:11:44;;;;;;;16.78;8.10;;;;;;;-11.26;66.20;98785.94;334914;120;1963020;-70
2021/01/16 02:12:57;;;;;;;13.86;6.91;;;;;;;-11.26;66.34;98788.55;345162;115;1962942;31
2021/01/16 02:14:03;;;;;;;17.73;8.13;;;;;;;-11.27;66.39;98788.63;347544;114;1962984;-70
2021/01/16 02:15:30;;;;;;;14.80;7.74;;;;;;;-11.29;66.38;98788.73;309714;114;2810000;-70
2021/01/16 02:16:48;;;;;;;16.32;6.69;;;;;;;-11.31;66.47;98796.63;325793;114;2864996;-70
2021/01/16 02:17:56;;;;;;;17.91;7.94;;;;;;;-11.35;66.56;98791.68;344501;114;1962994;-69
2021/01/16 02:19:05;;;;;;;14.60;6.07;;;;;;;-11.41;65.16;98792.88;305593;114;2237378;-70
2021/01/16 02:20:19;;;;;;;14.08;6.33;;;;;;;-11.47;64.56;98801.06;338515;114;1963972;-70
2021/01/16 02:21:26;;;;;;;16.06;6.61;;;;;;;-11.56;64.69;98799.01;334608;111;2455030;-70
2021/01/16 02:22:35;;;;;;;14.48;6.92;;;;;;;-11.60;64.75;98810.52;354690;112;1961988;-70
2021/01/16 02:24:13;;;;;;;12.73;5.96;;;;;;;-11.64;64.07;98807.27;339047;112;2845989;-70
2021/01/16 02:25:24;;;;;;;11.56;5.43;;;;;;;-11.66;63.17;98808.27;359718;110;1961791;-70
2021/01/16 02:27:01;;;;;;;15.66;6.66;;;;;;;-11.76;62.57;98790.55;353393;105;1961957;-69
2021/01/16 02:28:14;;;;;;;11.75;6.10;;;;;;;-11.79;62.43;98795.94;347818;114;1961965;-69
2021/01/16 02:29:31;;;;;;;11.45;5.23;;;;;;;-11.99;62.54;98799.69;348582;114;1962936;-68
2021/01/16 02:30:40;;;;;;;12.25;5.87;;;;;;;-12.04;62.50;98800.87;340748;114;1965019;-70
2021/01/16 02:32:02;;;;;;;11.57;5.30;;;;;;;-12.08;62.64;98801.98;321619;113;2027873;-69
2021/01/16 02:33:22;;;;;;;13.42;6.23;;;;;;;-12.19;62.73;98793.00;345633;115;1961987;-70
2021/01/16 02:34:34;;;;;;;14.01;6.71;;;;;;;-12.17;62.57;98795.50;316481;116;2607937;-71
2021/01/16 02:35:55;;;;;;;11.40;5.75;;;;;;;-12.24;62.66;98796.78;348604;113;1961872;-70
2021/01/16 02:37:16;;;;;;;14.86;6.53;;;;;;;-12.29;62.66;98817.02;331924;113;2408983;-70
2021/01/16 02:38:34;;;;;;;14.11;6.07;;;;;;;-12.33;62.70;98799.88;349913;113;1961933;-70
2021/01/16 02:39:49;;;;;;;16.23;5.99;;;;;;;-12.42;62.89;98796.85;344749;114;1962054;-68
2021/01/16 02:41:03;;;;;;;12.67;4.97;;;;;;;-12.47;63.23;98800.62;300363;117;2872022;-68
2021/01/16 02:42:16;;;;;;;12.03;5.47;;;;;;;-12.51;63.26;98796.53;339837;116;1965021;-69
2021/01/16 02:43:31;;;;;;;13.68;6.39;;;;;;;-12.55;63.28;98803.64;340160;116;1961968;-70
2021/01/16 02:44:39;;;;;;;13.56;6.04;;;;;;;-12.60;63.60;98804.81;349126;114;1962944;-69
2021/01/16 02:45:49;;;;;;;16.53;6.65;;;;;;;-12.63;63.49;98801.45;346970;114;1961954;-69
2021/01/16 02:47:02;;;;;;;17.31;7.04;;;;;;;-12.68;63.74;98802.62;348157;114;1962019;-70
2021/01/16 02:48:27;;;;;;;11.29;6.41;;;;;;;-12.68;63.81;98798.25;348236;114;1961923;-70
2021/01/16 02:49:44;;;;;;;14.20;5.86;;;;;;;-12.70;64.07;98799.25;347634;114;1961896;-69
2021/01/16 02:51:03;;;;;;;14.22;6.08;;;;;;;-12.70;64.17;98807.05;348233;114;1961859;-70
2021/01/16 02:52:12;;;;;;;16.61;6.96;;;;;;;-12.72;64.14;98796.75;343260;112;1964017;-70
2021/01/16 02:53:23;;;;;;;16.77;6.77;;;;;;;-12.68;64.23;98803.45;339004;112;1962051;-70
2021/01/16 02:54:35;;;;;;;16.92;6.38;;;;;;;-12.66;64.18;98804.22;351703;113;1961957;-70
2021/01/16 02:55:40;;;;;;;12.49;6.72;;;;;;;-12.81;63.78;98767.78;343274;113;1969944;-70
2021/01/16 02:56:48;;;;;;;15.59;6.86;;;;;;;-12.65;63.85;98800.72;323117;113;2618928;-70
2021/01/16 02:57:54;;;;;;;14.41;6.31;;;;;;;-12.69;63.97;98798.34;352339;113;1962912;-70
2021/01/16 02:59:00;;;;;;;16.04;6.31;;;;;;;-12.68;64.08;98800.85;351096;113;1962116;-70
2021/01/16 03:00:20;;;;;;;15.62;7.03;;;;;;;-12.71;64.03;98805.39;338689;113;2331934;-69
2021/01/16 03:01:25;;;;;;;13.05;5.76;;;;;;;-12.76;64.07;98803.02;351887;111;1963007;-69
2021/01/16 03:02:31;;;;;;;11.70;5.49;;;;;;;-12.72;63.98;98814.95;350970;109;1960732;-70
2021/01/16 03:03:38;;;;;;;15.76;8.02;;;;;;;-12.79;64.07;98803.19;313068;115;2240947;-70
2021/01/16 03:04:46;;;;;;;12.02;5.98;;;;;;;-12.77;63.85;98806.55;331654;117;2880074;-69
2021/01/16 03:05:51;;;;;;;13.14;6.94;;;;;;;-12.83;64.09;98812.09;323789;122;1961903;-69
2021/01/16 03:06:58;;;;;;;12.74;6.68;;;;;;;-12.91;64.34;98820.28;330810;121;1962039;-70
2021/01/16 03:08:04;;;;;;;19.62;7.55;;;;;;;-12.91;64.32;98814.22;309982;120;1961933;-69
2021/01/16 03:09:11;;;;;;;16.08;7.15;;;;;;;-12.92;64.17;98817.75;331556;120;1963734;-70
2021/01/16 03:10:19;;;;;;;17.36;7.61;;;;;;;-12.92;64.22;98812.55;323007;120;1963988;-69
2021/01/16 03:11:35;;;;;;;16.07;7.21;;;;;;;-13.01;64.28;98826.87;311210;120;2507032;-70
2021/01/16 03:12:42;;;;;;;13.10;6.18;;;;;;;-12.97;64.07;98823.19;338340;117;1963016;-74
2021/01/16 03:13:49;;;;;;;15.99;7.46;;;;;;;-13.12;64.25;98811.84;323558;117;2851891;-73
2021/01/16 03:14:55;;;;;;;19.43;6.58;;;;;;;-13.17;64.47;98816.42;337390;118;1961991;-73
2021/01/16 03:16:04;;;;;;;15.94;7.62;;;;;;;-13.14;64.37;98826.66;328459;118;2235973;-72
2021/01/16 03:17:12;;;;;;;13.82;6.78;;;;;;;-13.19;64.47;98815.66;325479;118;2308992;-73
2021/01/16 03:18:21;;;;;;;16.37;7.32;;;;;;;-13.20;64.69;98821.78;335251;118;1961958;-73
2021/01/16 03:19:30;;;;;;;17.08;7.91;;;;;;;-13.27;64.69;98830.00;326850;121;1961992;-73
2021/01/16 03:20:37;;;;;;;17.71;7.34;;;;;;;-13.29;64.91;98832.66;310977;118;2611007;-72
2021/01/16 03:21:42;;;;;;;14.21;6.25;;;;;;;-13.32;65.03;98828.45;329156;118;1963926;-73
2021/01/16 03:22:53;;;;;;;12.56;6.86;;;;;;;-13.32;65.03;98828.45;337103;118;1960993;-73
2021/01/16 03:23:56;;;;;;;16.07;7.03;;;;;;;-13.35;65.20;98818.22;337583;111;1962033;-73
2021/01/16 03:25:02;;;;;;;13.25;6.91;;;;;;;-13.33;65.14;98828.55;334830;119;1961906;-73
2021/01/16 03:26:07;;;;;;;15.98;7.64;;;;;;;-13.33;65.15;98819.00;305510;119;2017277;-73
2021/01/16 03:27:13;;;;;;;16.01;8.01;;;;;;;-13.34;65.16;98822.48;332918;118;1960650;-73
2021/01/16 03:28:18;;;;;;;12.55;7.01;;;;;;;-13.35;65.30;98818.22;335172;120;1961988;-73
2021/01/16 03:29:23;;;;;;;18.97;7.96;;;;;;;-13.34;65.33;98819.89;307936;122;2385173;-73
2021/01/16 03:30:29;;;;;;;14.54;6.73;;;;;;;-13.32;65.29;98825.02;326718;122;1962036;-73
2021/01/16 03:31:35;;;;;;;16.09;7.49;;;;;;;-13.33;65.22;98816.39;330248;120;1961904;-74
2021/01/16 03:32:42;;;;;;;15.48;6.86;;;;;;;-13.36;65.30;98824.34;319925;120;2318976;-74
2021/01/16 03:33:48;;;;;;;20.37;9.31;;;;;;;-13.37;65.10;98819.22;330375;120;1963940;-73
2021/01/16 03:34:54;;;;;;;15.14;6.83;;;;;;;-13.44;65.06;98823.89;321681;120;2238939;-73
2021/01/16 03:35:59;;;;;;;16.66;8.42;;;;;;;-13.46;64.89;98815.33;329052;120;1961918;-73
2021/01/16 03:37:06;;;;;;;17.66;7.86;;;;;;;-13.46;64.65;98820.53;330136;122;1961967;-74
2021/01/16 03:38:11;;;;;;;14.59;6.66;;;;;;;-13.45;64.40;98829.16;302876;118;2175971;-74
2021/01/16 03:39:17;;;;;;;15.73;7.35;;;;;;;-13.47;64.24;98836.17;335244;118;1961938;-73
2021/01/16 03:40:24;;;;;;;16.11;6.44;;;;;;;-13.53;64.23;98821.73;335569;118;1962040;-73
2021/01/16 03:41:29;;;;;;;15.26;7.73;;;;;;;-13.58;64.43;98832.34;333879;118;1961690;-73
2021/01/16 03:42:36;;;;;;;14.89;7.81;;;;;;;-13.63;64.58;98816.15;336281;118;1961971;-73
2021/01/16 03:43:52;;;;;;;13.78;6.51;;;;;;;-13.59;64.21;98838.47;318140;118;2198064;-73
2021/01/16 03:44:57;;;;;;;20.01;7.03;;;;;;;-13.58;64.02;98808.97;355236;111;1962943;-71
2021/01/16 03:46:02;;;;;;;17.98;8.51;;;;;;;-13.70;64.27;98824.31;348371;113;1961969;-71
2021/01/16 03:47:09;;;;;;;15.36;7.08;;;;;;;-13.85;64.71;98812.94;323382;113;1964956;-71
2021/01/16 03:48:15;;;;;;;17.71;7.92;;;;;;;-13.76;64.42;98825.45;338824;116;1964116;-71
2021/01/16 03:49:20;;;;;;;17.32;8.62;;;;;;;-13.80;64.21;98836.92;331030;115;2373000;-71
2021/01/16 03:50:26;;;;;;;23.57;8.32;;;;;;;-13.88;64.55;98826.06;349708;113;1962026;-71
2021/01/16 03:51:33;;;;;;;16.13;7.62;;;;;;;-13.87;64.71;98827.73;348265;114;1962972;-71
2021/01/16 03:52:40;;;;;;;15.92;8.08;;;;;;;-13.91;64.53;98828.81;314981;114;2199779;-71
2021/01/16 03:53:47;;;;;;;18.11;7.13;;;;;;;-13.91;64.54;98826.22;349000;114;1961871;-71
2021/01/16 03:54:53;;;;;;;16.28;7.36;;;;;;;-13.88;64.27;98826.91;347894;114;1960796;-72
2021/01/16 03:56:09;;;;;;;17.03;7.73;;;;;;;-13.96;64.34;98829.86;354725;112;1963936;-71
2021/01/16 03:57:14;;;;;;;17.46;7.28;;;;;;;-13.98;64.03;98836.88;344419;112;1963895;-71
2021/01/16 03:58:20;;;;;;;16.73;7.87;;;;;;;-13.96;63.77;98835.05;353661;112;1961951;-71
2021/01/16 03:59:36;;;;;;;17.25;7.74;;;;;;;-14.06;63.78;98846.78;353296;114;1963976;-71
2021/01/16 04:00:44;;;;;;;18.98;7.96;;;;;;;-14.12;64.12;98841.89;336341;118;1961958;-71
2021/01/16 04:02:00;;;;;;;18.96;9.27;;;;;;;-14.19;64.17;98854.28;330372;118;2189001;-71
2021/01/16 04:03:06;;;;;;;13.70;7.00;;;;;;;-14.19;64.15;98845.67;336850;118;1962025;-71
2021/01/16 04:04:12;;;;;;;15.79;7.36;;;;;;;-14.17;64.13;98834.31;314428;118;2226957;-71
2021/01/16 04:05:17;;;;;;;15.03;7.07;;;;;;;-14.22;64.27;98841.47;330467;120;1961963;-71
2021/01/16 04:06:23;;;;;;;15.30;7.06;;;;;;;-14.24;64.38;98837.26;325235;122;1962025;-71
2021/01/16 04:07:28;;;;;;;19.07;6.51;;;;;;;-14.29;64.51;98844.41;313524;120;2447029;-71
2021/01/16 04:08:34;;;;;;;18.31;8.65;;;;;;;-14.32;64.67;98849.74;326953;119;1961935;-71
2021/01/16 04:09:52;;;;;;;15.14;6.34;;;;;;;-14.38;64.84;98844.84;333507;120;1964044;-71
2021/01/16 04:10:57;;;;;;;12.93;6.02;;;;;;;-14.40;64.90;98848.34;351575;113;1961954;-71
2021/01/16 04:12:03;;;;;;;13.98;6.25;;;;;;;-14.48;65.16;98853.03;347644;113;1960829;-71
2021/01/16 04:13:09;;;;;;;14.83;6.52;;;;;;;-14.43;65.02;98834.67;318240;114;2240963;-71
2021/01/16 04:14:15;;;;;;;16.82;7.04;;;;;;;-14.60;65.49;98847.59;347538;114;1960986;-72
2021/01/16 04:15:21;;;;;;;14.98;7.49;;;;;;;-14.52;65.47;98842.92;307057;115;2807975;-72
2021/01/16 04:16:29;;;;;;;17.23;7.61;;;;;;;-14.50;65.35;98836.73;344350;115;1964050;-71
2021/01/16 04:17:34;;;;;;;15.61;7.63;;;;;;;-14.54;65.54;98834.37;340673;114;2213910;-71
2021/01/16 04:18:40;;;;;;;15.07;7.04;;;;;;;-14.59;65.84;98842.34;347724;114;1961952;-71
2021/01/16 04:19:56;;;;;;;15.81;7.49;;;;;;;-14.61;65.56;98844.16;345861;116;1961976;-72
2021/01/16 04:21:03;;;;;;;19.44;7.62;;;;;;;-14.65;65.95;98838.28;332018;114;1962727;-72
2021/01/16 04:22:09;;;;;;;17.93;7.45;;;;;;;-14.65;65.96;98845.22;348419;115;1964002;-71
2021/01/16 04:23:15;;;;;;;16.19;7.59;;;;;;;-14.66;65.91;98856.48;336942;114;1963075;-72
2021/01/16 04:24:20;;;;;;;17.88;7.41;;;;;;;-14.68;65.92;98853.14;347842;114;1961967;-72
2021/01/16 04:25:26;;;;;;;14.74;6.39;;;;;;;-14.71;66.14;98856.71;339462;118;1962050;-71
2021/01/16 04:26:34;;;;;;;17.51;7.79;;;;;;;-14.77;66.40;98861.31;347763;116;1962963;-71
2021/01/16 04:27:40;;;;;;;14.76;5.52;;;;;;;-14.76;66.23;98856.07;325492;115;1963027;-72
2021/01/16 04:28:46;;;;;;;18.08;7.58;;;;;;;-14.83;66.52;98859.83;348386;115;1965005;-72
2021/01/16 04:29:55;;;;;;;13.35;6.25;;;;;;;-14.82;66.38;98850.30;320621;114;2838888;31
2021/01/16 04:31:01;;;;;;;18.11;7.47;;;;;;;-14.81;66.43;98862.38;304659;117;2773997;-71
2021/01/16 04:32:07;;;;;;;16.10;7.26;;;;;;;-14.83;66.29;98862.42;337239;118;1961963;-71
2021/01/16 04:33:13;;;;;;;16.21;8.06;;;;;;;-14.85;66.34;98859.89;326603;121;1961969;-71
2021/01/16 04:34:19;;;;;;;19.56;7.28;;;;;;;-14.89;66.46;98863.53;304795;117;2140167;-71
2021/01/16 04:35:26;;;;;;;16.43;7.67;;;;;;;-14.88;66.33;98867.80;339829;117;1962054;-71
2021/01/16 04:36:32;;;;;;;14.57;6.98;;;;;;;-14.92;66.52;98870.58;315402;118;1965033;-72
2021/01/16 04:37:37;;;;;;;13.60;6.68;;;;;;;-14.98;66.89;98863.92;337218;118;1962019;-72
2021/01/16 04:38:44;;;;;;;15.02;6.46;;;;;;;-14.90;66.67;98871.36;304894;117;2781007;-71
2021/01/16 04:39:51;;;;;;;16.79;6.96;;;;;;;-14.95;66.73;98861.22;339135;117;1962056;-71
2021/01/16 04:41:01;;;;;;;18.13;6.58;;;;;;;-14.99;66.68;98867.43;338622;117;1962069;-71
2021/01/16 04:42:09;;;;;;;15.36;7.06;;;;;;;-15.02;66.65;98862.39;312967;117;1985177;-72
2021/01/16 04:43:15;;;;;;;12.51;7.12;;;;;;;-15.03;66.78;98862.44;328263;117;2171977;-71
2021/01/16 04:44:22;;;;;;;17.38;8.01;;;;;;;-14.99;66.71;98871.78;347520;111;1960815;-71
2021/01/16 04:45:28;;;;;;;15.58;8.06;;;;;;;-15.00;66.58;98873.53;320639;113;2700020;-71
2021/01/16 04:46:36;;;;;;;17.97;7.68;;;;;;;-15.05;66.72;98862.52;351027;115;1961995;-71
2021/01/16 04:47:47;;;;;;;15.71;6.84;;;;;;;-15.08;66.78;98865.22;324416;113;1962890;-71
2021/01/16 04:48:59;;;;;;;15.43;7.16;;;;;;;-15.10;66.89;98859.28;344844;115;1962995;-71
2021/01/16 04:50:09;;;;;;;16.75;7.54;;;;;;;-15.12;66.93;98871.45;344643;115;1969976;-71
2021/01/16 04:51:16;;;;;;;21.32;7.85;;;;;;;-15.13;67.09;98874.97;344224;115;1962072;-71
2021/01/16 04:52:31;;;;;;;18.02;7.80;;;;;;;-15.13;66.92;98856.83;334638;115;1961994;-71
2021/01/16 04:53:41;;;;;;;18.62;7.74;;;;;;;-15.17;67.04;98860.44;343976;117;1961926;-71
2021/01/16 04:54:50;;;;;;;16.92;7.71;;;;;;;-15.22;67.06;98867.56;344758;115;1962917;-71
2021/01/16 04:56:08;;;;;;;15.48;7.94;;;;;;;-15.27;67.34;98874.69;344108;115;1962058;-71
2021/01/16 04:57:15;;;;;;;20.25;7.96;;;;;;;-15.25;67.19;98875.47;360360;110;1963968;-71
2021/01/16 04:58:20;;;;;;;16.23;7.24;;;;;;;-15.29;67.30;98867.00;344546;112;2175105;-72
2021/01/16 04:59:26;;;;;;;15.35;7.27;;;;;;;-15.29;67.32;98880.78;352960;113;1961966;-72
2021/01/16 05:00:39;;;;;;;20.92;8.51;;;;;;;-15.33;67.36;98894.75;354332;113;1961910;-74
2021/01/16 05:01:46;;;;;;;15.62;7.12;;;;;;;-15.31;67.44;98881.75;353225;114;1962014;-72
2021/01/16 05:02:56;;;;;;;21.62;8.33;;;;;;;-15.35;67.30;98890.54;349588;113;1963957;-72
2021/01/16 05:04:02;;;;;;;21.77;8.29;;;;;;;-15.34;67.42;98890.48;352693;113;1964969;-72
2021/01/16 05:05:12;;;;;;;17.97;7.88;;;;;;;-15.32;67.19;98886.09;336166;113;2437002;-72
2021/01/16 05:06:19;;;;;;;23.20;9.03;;;;;;;-15.35;67.18;98888.78;354139;113;1962002;-72
2021/01/16 05:07:25;;;;;;;18.68;7.95;;;;;;;-15.37;67.15;98885.44;352331;113;1961996;-72
2021/01/16 05:08:31;;;;;;;16.85;7.92;;;;;;;-15.38;67.21;98894.09;323421;113;2231944;-72
2021/01/16 05:09:40;;;;;;;19.43;9.62;;;;;;;-15.41;67.28;98888.21;353414;113;1962076;-72